Time;durP1;ratioP1;P1;durP2;ratioP2;P2;SDS_P1;SDS_P2;PMS_P1;PMS_P2;Temp;Humidity;BMP_temperature;BMP_pressure;BME280_temperature;BME280_humidity;BME280_pressure;Samples;Min_cycle;Max_cycle;Signal;HPM_P1;HPM_P2
2022/11/18 00:01:17;;;;;;;25.27;14.00;;;1.90;99.90;;;;;;4959952;28;20447;-53
2022/11/18 00:03:44;;;;;;;26.52;14.45;;;1.90;99.90;;;;;;4959059;28;20066;-52
2022/11/18 00:06:12;;;;;;;29.02;15.60;;;2.00;99.90;;;;;;4961269;28;20023;-54
2022/11/18 00:08:38;;;;;;;27.30;14.52;;;1.90;99.90;;;;;;4960223;28;20042;-52
2022/11/18 00:11:05;;;;;;;25.88;15.10;;;1.90;99.90;;;;;;4959170;28;20027;-52
2022/11/18 00:16:15;;;;;;;29.00;15.23;;;1.90;99.90;;;;;;4970709;28;19948;-51
2022/11/18 00:18:41;;;;;;;28.27;16.30;;;1.90;99.90;;;;;;4970718;28;20043;-52
2022/11/18 00:21:08;;;;;;;28.42;15.70;;;1.90;99.90;;;;;;4970525;28;20033;-52
2022/11/18 00:23:35;;;;;;;28.45;14.90;;;1.90;99.90;;;;;;4970667;28;20077;-51
2022/11/18 00:26:08;;;;;;;26.37;14.70;;;2.00;99.90;;;;;;4970739;28;20027;-55
2022/11/18 00:28:34;;;;;;;29.30;15.27;;;1.90;99.90;;;;;;4970674;28;20308;-52
2022/11/18 00:31:05;;;;;;;28.48;14.98;;;1.90;99.90;;;;;;4970580;28;20038;-51
2022/11/18 00:33:31;;;;;;;27.27;15.80;;;1.90;99.90;;;;;;4969755;28;20065;-52
2022/11/18 00:35:57;;;;;;;28.55;15.23;;;1.90;99.90;;;;;;4970737;28;20086;-52
2022/11/18 00:38:24;;;;;;;29.33;15.50;;;2.00;99.90;;;;;;4970598;28;20031;-51
2022/11/18 00:41:02;;;;;;;32.35;16.52;;;2.00;99.90;;;;;;4970448;28;20482;-52
2022/11/18 00:43:28;;;;;;;30.45;15.07;;;2.00;99.90;;;;;;4970637;28;20048;-54
2022/11/18 00:45:54;;;;;;;30.55;15.73;;;2.10;99.90;;;;;;4968829;28;20073;-52
2022/11/18 00:48:21;;;;;;;29.05;16.23;;;2.10;99.90;;;;;;4953720;28;20026;-53
2022/11/18 00:50:48;;;;;;;30.88;17.70;;;2.10;99.90;;;;;;4974487;28;20478;-53
2022/11/18 00:53:14;;;;;;;28.15;15.68;;;2.10;99.90;;;;;;4974153;28;20027;-53
2022/11/18 00:55:40;;;;;;;30.92;16.20;;;2.10;99.90;;;;;;4974323;28;20054;-53
2022/11/18 00:58:06;;;;;;;28.45;14.60;;;2.10;99.90;;;;;;4974457;28;20027;-52
2022/11/18 01:00:32;;;;;;;27.25;15.27;;;2.20;99.90;;;;;;4973943;28;20076;-53
2022/11/18 01:02:57;;;;;;;26.83;15.20;;;2.20;99.90;;;;;;4956820;28;20067;-53
2022/11/18 01:05:23;;;;;;;33.72;16.40;;;2.30;99.90;;;;;;4974147;28;20027;-53
2022/11/18 01:07:48;;;;;;;27.52;15.63;;;2.20;99.90;;;;;;4963161;28;20031;-54
2022/11/18 01:10:15;;;;;;;29.65;15.57;;;2.20;99.90;;;;;;4959337;28;20031;-51
2022/11/18 01:15:25;;;;;;;32.47;16.92;;;2.20;99.90;;;;;;4954492;29;20077;-52
2022/11/18 01:17:51;;;;;;;30.40;16.33;;;2.20;99.90;;;;;;4958921;28;20718;-53
2022/11/18 01:20:16;;;;;;;27.23;15.82;;;2.10;99.90;;;;;;4960568;28;20027;-53
2022/11/18 01:22:42;;;;;;;30.33;16.13;;;2.10;99.90;;;;;;4963491;28;20023;-51
2022/11/18 01:25:08;;;;;;;26.10;15.35;;;2.10;99.90;;;;;;4963021;28;20031;-52
2022/11/18 01:27:34;;;;;;;30.95;15.95;;;2.10;99.90;;;;;;4961574;28;20077;-52
2022/11/18 01:29:59;;;;;;;27.13;15.15;;;2.10;99.90;;;;;;4961505;28;20505;-53
2022/11/18 01:32:26;;;;;;;31.33;18.73;;;2.10;99.90;;;;;;4962076;28;20037;-52
2022/11/18 01:34:52;;;;;;;;;;;2.10;99.90;;;;;;4964510;28;20078;-53
2022/11/18 01:37:18;;;;;;;31.95;17.60;;;2.10;99.90;;;;;;4947980;28;21329;-53
2022/11/18 01:39:43;;;;;;;33.70;17.70;;;2.00;99.90;;;;;;4959867;28;20031;-52
2022/11/18 01:42:16;;;;;;;30.65;17.42;;;2.10;99.90;;;;;;4962540;28;20019;-53
2022/11/18 01:45:03;;;;;;;32.13;17.95;;;2.10;99.90;;;;;;4963376;28;20478;-53
2022/11/18 01:47:34;;;;;;;32.67;17.83;;;2.00;99.90;;;;;;4963554;28;20030;-53
2022/11/18 01:50:01;;;;;;;31.48;18.30;;;2.00;99.90;;;;;;4963288;28;20027;-53
2022/11/18 01:52:27;;;;;;;36.20;19.80;;;2.00;99.90;;;;;;4962043;28;20379;-53
2022/11/18 01:54:58;;;;;;;30.50;17.88;;;2.00;99.90;;;;;;4961707;28;20066;-55
2022/11/18 01:57:26;;;;;;;31.27;17.42;;;2.00;99.90;;;;;;4963602;28;20035;-54
2022/11/18 01:59:55;;;;;;;32.95;17.80;;;2.00;99.90;;;;;;4944925;28;20034;-53
2022/11/18 02:02:21;;;;;;;33.85;19.40;;;2.10;99.90;;;;;;4961231;28;20114;-52
2022/11/18 02:04:49;;;;;;;32.53;18.13;;;2.10;99.90;;;;;;4961601;28;20031;-54
2022/11/18 02:07:15;;;;;;;32.95;19.48;;;2.10;99.90;;;;;;4971465;28;20054;-51
2022/11/18 02:09:42;;;;;;;37.10;18.83;;;2.10;99.90;;;;;;4971998;28;20023;-52
2022/11/18 02:12:08;;;;;;;36.22;18.42;;;2.10;99.90;;;;;;4971428;28;20027;-53
2022/11/18 02:14:38;;;;;;;37.23;20.30;;;2.10;99.90;;;;;;4971310;28;20039;-53
2022/11/18 02:17:26;;;;;;;34.25;18.90;;;2.00;99.90;;;;;;4971487;28;20263;-53
2022/11/18 02:19:57;;;;;;;35.07;18.53;;;2.00;99.90;;;;;;4971405;28;20081;-54
2022/11/18 02:23:00;;;;;;;33.00;17.67;;;2.00;99.90;;;;;;4971457;28;20086;-53
2022/11/18 02:25:53;;;;;;;30.42;17.25;;;1.90;99.90;;;;;;4972557;28;20035;-54
2022/11/18 02:28:36;;;;;;;30.95;18.13;;;1.90;99.90;;;;;;4955178;28;20030;-52
2022/11/18 02:31:24;;;;;;;33.47;17.15;;;2.00;99.90;;;;;;4972308;28;20022;-52
2022/11/18 02:34:22;;;;;;;28.98;16.17;;;2.00;99.90;;;;;;4972607;28;20078;-53
2022/11/18 02:36:56;;;;;;;36.75;18.98;;;2.00;99.90;;;;;;4971539;28;20066;-54
2022/11/18 02:39:38;;;;;;;35.13;17.63;;;2.00;99.90;;;;;;4972251;28;20113;-54
2022/11/18 02:42:09;;;;;;;37.03;18.80;;;2.00;99.90;;;;;;4972511;28;20060;-52
2022/11/18 02:44:38;;;;;;;35.22;18.13;;;2.00;99.90;;;;;;4972315;28;20023;-53
2022/11/18 02:47:07;;;;;;;35.20;18.40;;;2.10;99.90;;;;;;4972364;28;20030;-53
2022/11/18 02:49:39;;;;;;;32.90;17.52;;;2.00;99.90;;;;;;4972223;28;20038;-53
2022/11/18 02:52:07;;;;;;;33.70;18.38;;;2.00;99.90;;;;;;4972323;28;20549;-52
2022/11/18 02:54:36;;;;;;;29.10;18.40;;;2.00;99.90;;;;;;4971956;28;20046;-53
2022/11/18 02:57:04;;;;;;;33.28;18.40;;;2.10;99.90;;;;;;4970743;28;20042;-53
2022/11/18 02:59:29;;;;;;;33.83;18.20;;;2.00;99.90;;;;;;4966114;28;20045;-52
2022/11/18 03:01:55;;;;;;;35.35;18.55;;;2.10;99.90;;;;;;4971776;28;20078;-52
2022/11/18 03:04:24;;;;;;;34.65;18.73;;;2.10;99.90;;;;;;4972616;28;20038;-53
2022/11/18 03:06:58;;;;;;;30.05;16.35;;;2.00;99.90;;;;;;4989909;28;20381;-53
2022/11/18 03:09:32;;;;;;;32.17;17.92;;;2.00;99.90;;;;;;4991764;28;20072;-53
2022/11/18 03:12:32;;;;;;;34.65;19.05;;;2.10;99.90;;;;;;4990893;28;20117;-52
2022/11/18 03:15:21;;;;;;;32.10;17.27;;;2.00;99.90;;;;;;4991232;28;20130;-53
2022/11/18 03:17:52;;;;;;;32.13;16.10;;;2.00;99.90;;;;;;4986080;28;20015;-53
2022/11/18 03:20:32;;;;;;;30.52;17.02;;;2.00;99.90;;;;;;4972133;28;20034;-52
2022/11/18 03:23:07;;;;;;;32.25;17.48;;;2.00;99.90;;;;;;4991296;28;20381;-52
2022/11/18 03:25:54;;;;;;;31.02;15.88;;;2.00;99.90;;;;;;4991559;28;20027;-52
2022/11/18 03:28:34;;;;;;;26.45;15.65;;;1.90;99.90;;;;;;4990884;28;20026;-53
2022/11/18 03:31:14;;;;;;;30.58;17.23;;;2.00;99.90;;;;;;4991194;28;20505;-53
2022/11/18 03:33:46;;;;;;;35.42;16.73;;;2.00;99.90;;;;;;4991285;28;20026;-54
2022/11/18 03:36:14;;;;;;;30.55;18.33;;;2.00;99.90;;;;;;4973375;28;20450;-51
2022/11/18 03:38:46;;;;;;;35.60;17.80;;;2.00;99.90;;;;;;4989732;28;20045;-52
2022/11/18 03:41:15;;;;;;;33.47;18.88;;;2.00;99.90;;;;;;4991314;28;20023;-55
2022/11/18 03:43:49;;;;;;;30.48;17.35;;;1.90;99.90;;;;;;4942292;28;20655;-53
2022/11/18 03:46:25;;;;;;;34.40;17.92;;;1.90;99.90;;;;;;4991251;28;20081;-52
2022/11/18 03:48:53;;;;;;;31.23;17.33;;;1.90;99.90;;;;;;4991404;28;20484;-53
2022/11/18 03:51:32;;;;;;;32.88;16.90;;;1.90;99.90;;;;;;4990882;28;20042;-52
2022/11/18 03:54:08;;;;;;;28.88;16.33;;;1.90;99.90;;;;;;4990398;28;20682;-52
2022/11/18 03:56:39;;;;;;;32.83;16.77;;;1.90;99.90;;;;;;4990710;28;20030;-54
2022/11/18 03:59:19;;;;;;;29.30;15.68;;;1.90;99.90;;;;;;4990807;28;20034;-54
2022/11/18 04:01:51;;;;;;;31.52;16.90;;;1.90;99.90;;;;;;4989285;28;20088;-52
2022/11/18 04:04:17;;;;;;;32.92;18.50;;;1.90;99.90;;;;;;4990946;28;20027;-53
2022/11/18 04:06:59;;;;;;;30.08;17.52;;;1.90;99.90;;;;;;4990763;28;20502;-53
2022/11/18 04:09:31;;;;;;;31.27;16.48;;;1.90;99.90;;;;;;4990864;28;20045;-53
2022/11/18 04:12:05;;;;;;;32.65;17.38;;;1.90;99.90;;;;;;4990821;28;20026;-52
2022/11/18 04:14:35;;;;;;;34.67;18.70;;;1.90;99.90;;;;;;4990806;28;20030;-52
2022/11/18 04:17:12;;;;;;;33.67;17.23;;;1.90;99.90;;;;;;4990483;28;20495;-52
2022/11/18 04:19:39;;;;;;;31.35;17.48;;;1.80;99.90;;;;;;4990775;28;20034;-52
2022/11/18 04:22:05;;;;;;;30.58;16.58;;;1.70;99.90;;;;;;4990423;28;20027;-53
2022/11/18 04:24:31;;;;;;;34.50;18.27;;;1.70;99.90;;;;;;4989727;28;20413;-53
2022/11/18 04:26:56;;;;;;;34.00;18.30;;;1.60;99.90;;;;;;4990616;28;20257;-53
2022/11/18 04:29:22;;;;;;;32.45;18.48;;;1.70;99.90;;;;;;4990577;28;20154;-53
2022/11/18 04:31:48;;;;;;;38.78;18.50;;;1.70;99.90;;;;;;4990504;28;20121;-51
2022/11/18 04:34:13;;;;;;;38.25;18.08;;;1.60;99.90;;;;;;4990253;28;20493;-53
2022/11/18 04:36:39;;;;;;;35.53;19.08;;;1.70;99.90;;;;;;4990202;28;20050;-52
2022/11/18 04:39:05;;;;;;;36.17;18.77;;;1.70;99.90;;;;;;4990347;28;20050;-53
2022/11/18 04:44:15;;;;;;;33.80;18.67;;;1.60;99.90;;;;;;4990430;28;20088;-53
2022/11/18 04:46:44;;;;;;;33.35;16.95;;;1.50;99.90;;;;;;4972901;28;20034;-52
2022/11/18 04:49:12;;;;;;;30.83;16.15;;;1.50;99.90;;;;;;4990213;28;20034;-53
2022/11/18 04:51:38;;;;;;;31.65;17.40;;;1.50;99.90;;;;;;4990004;28;20027;-53
2022/11/18 04:54:04;;;;;;;35.95;17.58;;;1.40;99.90;;;;;;4990164;28;20076;-52
2022/11/18 04:56:30;;;;;;;35.13;18.08;;;1.40;99.90;;;;;;4990048;28;20038;-54
2022/11/18 04:59:01;;;;;;;35.72;18.60;;;1.40;99.90;;;;;;4956956;28;20026;-55
2022/11/18 05:01:27;;;;;;;38.63;19.67;;;1.40;99.90;;;;;;4989961;28;20038;-52
2022/11/18 05:03:53;;;;;;;41.97;20.63;;;1.40;99.90;;;;;;4990024;28;20038;-53
2022/11/18 05:06:19;;;;;;;33.38;18.35;;;1.30;99.90;;;;;;4990101;28;20038;-53
2022/11/18 05:08:45;;;;;;;33.63;18.65;;;1.30;99.90;;;;;;4990062;28;20110;-52
2022/11/18 05:13:55;;;;;;;35.20;17.02;;;1.30;99.90;;;;;;4990227;28;20089;-52
2022/11/18 05:16:21;;;;;;;33.78;18.27;;;1.30;99.90;;;;;;4989824;28;20034;-52
2022/11/18 05:18:46;;;;;;;33.60;18.80;;;1.30;99.90;;;;;;4988430;28;20117;-53
2022/11/18 05:21:12;;;;;;;33.25;18.20;;;1.30;99.90;;;;;;4989989;28;20037;-51
2022/11/18 05:23:38;;;;;;;32.20;19.17;;;1.30;99.90;;;;;;4989776;28;20110;-52
2022/11/18 05:26:05;;;;;;;33.70;19.30;;;1.30;99.90;;;;;;4989799;28;20041;-52
2022/11/18 05:28:30;;;;;;;32.15;17.85;;;1.30;99.90;;;;;;4989709;28;20027;-53
2022/11/18 05:30:56;;;;;;;32.92;17.55;;;1.30;99.90;;;;;;4989896;28;20474;-52
2022/11/18 05:33:22;;;;;;;35.17;18.38;;;1.40;99.90;;;;;;4989642;28;20598;-52
2022/11/18 05:35:47;;;;;;;32.10;18.35;;;1.40;99.90;;;;;;4992355;28;20062;-53
2022/11/18 05:38:13;;;;;;;32.05;19.20;;;1.40;99.90;;;;;;4993650;28;20414;-52
2022/11/18 05:40:41;;;;;;;34.55;18.35;;;1.40;99.90;;;;;;4993198;28;20354;-53
2022/11/18 05:43:10;;;;;;;39.60;19.40;;;1.40;99.90;;;;;;4993241;28;20026;-51
2022/11/18 05:45:36;;;;;;;43.05;22.52;;;1.40;99.90;;;;;;4993023;28;20022;-53
2022/11/18 05:48:03;;;;;;;43.50;23.17;;;1.40;99.90;;;;;;4993037;28;20030;-52
2022/11/18 05:50:34;;;;;;;47.33;21.98;;;1.40;99.90;;;;;;4985731;28;20275;-52
2022/11/18 05:53:00;;;;;;;40.25;19.17;;;1.40;99.90;;;;;;4954340;29;20023;-52
2022/11/18 05:55:53;;;;;;;38.70;20.65;;;1.30;99.90;;;;;;4956082;28;20041;-54
2022/11/18 05:58:19;;;;;;;42.13;20.25;;;1.30;99.90;;;;;;4972533;28;20062;-54
2022/11/18 06:00:47;;;;;;;40.05;20.70;;;1.40;99.90;;;;;;4966868;28;20161;-52
2022/11/18 06:03:19;;;;;;;37.70;19.80;;;1.40;99.90;;;;;;4964870;28;20039;-53
2022/11/18 06:05:44;;;;;;;41.78;21.98;;;1.40;99.90;;;;;;4964126;28;20048;-53
2022/11/18 06:08:15;;;;;;;43.85;23.33;;;1.30;99.90;;;;;;4947022;28;20035;-53
2022/11/18 06:10:42;;;;;;;46.95;23.27;;;1.40;99.90;;;;;;4963429;28;20483;-52
2022/11/18 06:13:13;;;;;;;46.30;22.08;;;1.40;99.90;;;;;;4961786;28;20406;-54
2022/11/18 06:15:41;;;;;;;45.97;23.92;;;1.40;99.90;;;;;;4963372;28;20038;-53
2022/11/18 06:18:12;;;;;;;48.53;25.48;;;1.40;99.90;;;;;;4953761;29;20027;-53
2022/11/18 06:20:39;;;;;;;45.42;25.10;;;1.50;99.90;;;;;;4953842;29;20054;-53
2022/11/18 06:23:04;;;;;;;48.42;24.42;;;1.40;99.90;;;;;;4953811;29;20031;-52
2022/11/18 06:25:31;;;;;;;47.58;24.08;;;1.50;99.90;;;;;;4953408;29;20027;-53
2022/11/18 06:27:59;;;;;;;51.33;26.40;;;1.40;99.90;;;;;;4953779;29;20086;-53
2022/11/18 06:30:24;;;;;;;48.15;24.25;;;1.40;99.90;;;;;;4954087;28;20034;-53
2022/11/18 06:32:50;;;;;;;45.65;24.92;;;1.50;99.90;;;;;;4972579;28;20106;-52
2022/11/18 06:35:16;;;;;;;49.80;24.35;;;1.50;99.90;;;;;;4954002;28;20077;-55
2022/11/18 06:37:41;;;;;;;46.58;25.42;;;1.50;99.90;;;;;;4973149;28;20042;-54
2022/11/18 06:40:08;;;;;;;53.60;27.17;;;1.50;99.90;;;;;;4972674;28;20823;-53
2022/11/18 06:45:17;;;;;;;49.80;26.23;;;1.60;99.90;;;;;;4971735;28;20037;-53
2022/11/18 06:47:43;;;;;;;46.63;26.35;;;1.50;99.90;;;;;;4971986;28;20031;-52
2022/11/18 06:50:09;;;;;;;47.45;25.95;;;1.60;99.90;;;;;;4971594;28;20035;-53
2022/11/18 06:52:35;;;;;;;47.20;25.58;;;1.50;99.90;;;;;;4970736;28;20027;-53
2022/11/18 06:55:00;;;;;;;45.75;24.73;;;1.60;99.90;;;;;;4971241;28;20092;-54
2022/11/18 06:57:26;;;;;;;43.47;24.88;;;1.60;99.90;;;;;;4965729;28;20035;-52
2022/11/18 06:59:52;;;;;;;50.13;25.35;;;1.70;99.90;;;;;;4963503;28;20031;-54
2022/11/18 07:02:18;;;;;;;44.15;26.52;;;1.70;99.90;;;;;;4962016;28;20090;-53
2022/11/18 07:04:46;;;;;;;45.58;24.13;;;1.60;99.90;;;;;;4962132;28;20450;-53
2022/11/18 07:07:12;;;;;;;41.38;22.63;;;1.70;99.90;;;;;;4961807;28;20038;-53
2022/11/18 07:09:37;;;;;;;38.53;21.98;;;1.60;99.90;;;;;;4963368;28;20173;-53
2022/11/18 07:12:04;;;;;;;39.95;22.63;;;1.60;99.90;;;;;;4960015;28;20049;-52
2022/11/18 07:14:30;;;;;;;38.40;20.90;;;1.60;99.90;;;;;;4960635;28;20031;-55
2022/11/18 07:16:56;;;;;;;39.65;20.60;;;1.60;99.90;;;;;;4953069;29;20023;-54
2022/11/18 07:19:22;;;;;;;37.38;19.90;;;1.60;99.90;;;;;;4952962;28;20033;-54
2022/11/18 07:21:48;;;;;;;34.30;20.13;;;1.50;99.90;;;;;;4962982;28;20022;-54
2022/11/18 07:24:14;;;;;;;32.22;18.70;;;1.50;99.90;;;;;;4961478;28;20042;-54
2022/11/18 07:26:40;;;;;;;32.30;17.48;;;1.50;99.90;;;;;;4963091;28;20034;-55
2022/11/18 07:29:06;;;;;;;35.73;18.17;;;1.50;99.90;;;;;;4962280;28;20151;-54
2022/11/18 07:31:34;;;;;;;27.17;17.05;;;1.40;99.90;;;;;;4961047;28;20105;-53
2022/11/18 07:33:59;;;;;;;;;;;1.40;99.90;;;;;;4962974;28;20019;-53
2022/11/18 07:36:27;;;;;;;33.10;17.77;;;1.40;99.90;;;;;;4961132;28;19922;-55
2022/11/18 07:38:53;;;;;;;34.35;18.83;;;1.40;99.90;;;;;;4959460;28;20089;-55
2022/11/18 07:41:22;;;;;;;36.33;19.48;;;1.50;99.90;;;;;;4962689;28;20038;-55
2022/11/18 07:43:49;;;;;;;39.88;21.67;;;1.50;99.90;;;;;;4961805;28;20531;-54
2022/11/18 07:46:22;;;;;;;39.33;20.98;;;1.40;99.90;;;;;;4960602;28;20030;-55
2022/11/18 07:48:50;;;;;;;37.65;20.50;;;1.50;99.90;;;;;;4961230;28;20122;-54
2022/11/18 07:51:18;;;;;;;37.10;20.52;;;1.50;99.90;;;;;;4962545;28;20019;-54
2022/11/18 07:53:44;;;;;;;40.50;21.67;;;1.50;99.90;;;;;;4961150;28;20105;-55
2022/11/18 07:56:10;;;;;;;41.22;23.27;;;1.50;99.90;;;;;;4961254;28;20026;-55
2022/11/18 07:58:36;;;;;;;39.15;21.23;;;1.50;99.90;;;;;;4962343;28;20355;-54
2022/11/18 08:01:06;;;;;;;41.37;23.43;;;1.50;99.90;;;;;;4960797;28;20130;-53
2022/11/18 08:03:32;;;;;;;42.63;22.00;;;1.50;99.90;;;;;;4960631;28;20418;-55
2022/11/18 08:05:59;;;;;;;42.25;22.38;;;1.50;99.90;;;;;;4962859;28;20134;-55
2022/11/18 08:08:24;;;;;;;48.38;24.45;;;1.50;99.90;;;;;;4968515;28;20490;-55
2022/11/18 08:10:50;;;;;;;43.08;22.30;;;1.60;99.90;;;;;;4969640;28;20169;-56
2022/11/18 08:13:16;;;;;;;42.97;24.17;;;1.60;99.90;;;;;;4962460;28;20109;-55
2022/11/18 08:15:42;;;;;;;45.17;23.40;;;1.50;99.90;;;;;;4960141;28;20402;-55
2022/11/18 08:18:08;;;;;;;40.67;22.38;;;1.50;99.90;;;;;;4958667;28;20019;-53
2022/11/18 08:20:37;;;;;;;38.70;22.10;;;1.60;99.90;;;;;;4961370;28;20508;-53
2022/11/18 08:23:02;;;;;;;41.53;21.42;;;1.50;99.90;;;;;;4965566;28;20060;-54
2022/11/18 08:25:28;;;;;;;42.45;21.88;;;1.60;99.90;;;;;;4961595;28;20038;-54
2022/11/18 08:27:54;;;;;;;37.95;20.75;;;1.60;99.90;;;;;;4951507;29;20030;-52
2022/11/18 08:30:19;;;;;;;37.92;20.67;;;1.60;99.90;;;;;;4951603;29;20023;-54
2022/11/18 08:32:45;;;;;;;38.15;21.05;;;1.60;99.90;;;;;;4951211;29;20382;-54
2022/11/18 08:35:11;;;;;;;38.70;22.05;;;1.60;99.90;;;;;;4958418;28;20217;-53
2022/11/18 08:37:37;;;;;;;42.88;23.42;;;1.70;99.90;;;;;;4971178;28;20039;-54
2022/11/18 08:40:03;;;;;;;42.67;22.83;;;1.70;99.90;;;;;;4970229;28;20051;-53
2022/11/18 08:42:28;;;;;;;42.33;23.17;;;1.70;99.90;;;;;;4955772;28;20075;-53
2022/11/18 08:44:54;;;;;;;40.50;21.17;;;1.60;99.90;;;;;;4950530;29;20373;-53
2022/11/18 08:47:20;;;;;;;41.00;21.15;;;1.60;99.90;;;;;;4951548;29;20423;-54
2022/11/18 08:49:46;;;;;;;43.85;21.55;;;1.60;99.90;;;;;;4934230;29;20501;-53
2022/11/18 08:52:12;;;;;;;39.28;20.60;;;1.60;99.90;;;;;;4951170;29;20031;-53
2022/11/18 08:54:37;;;;;;;41.63;22.10;;;1.60;99.90;;;;;;4951354;29;20039;-54
2022/11/18 08:57:03;;;;;;;36.75;18.25;;;1.60;99.90;;;;;;4951396;29;20505;-54
2022/11/18 08:59:29;;;;;;;39.70;20.80;;;1.50;99.90;;;;;;4951364;29;20039;-52
2022/11/18 09:01:54;;;;;;;36.58;20.20;;;1.50;99.90;;;;;;4951558;29;20019;-53
2022/11/18 09:04:20;;;;;;;37.35;19.48;;;1.50;99.90;;;;;;4960426;28;20031;-54
2022/11/18 09:06:46;;;;;;;40.85;21.10;;;1.60;99.90;;;;;;4968610;28;20094;-53
2022/11/18 09:09:11;;;;;;;35.83;19.42;;;1.50;99.90;;;;;;4951723;28;20031;-53
2022/11/18 09:11:38;;;;;;;36.75;18.88;;;1.60;99.90;;;;;;4937849;29;20078;-53
2022/11/18 09:14:04;;;;;;;39.00;19.58;;;1.60;99.90;;;;;;4954769;29;20055;-52
2022/11/18 09:16:32;;;;;;;34.00;18.40;;;1.50;99.90;;;;;;4955223;29;20555;-53
2022/11/18 09:18:58;;;;;;;39.58;21.50;;;1.60;99.90;;;;;;4955214;29;20364;-53
2022/11/18 09:21:25;;;;;;;39.40;22.17;;;1.70;99.90;;;;;;4953769;29;20031;-53
2022/11/18 09:23:50;;;;;;;44.70;22.40;;;1.70;99.90;;;;;;4955013;29;20027;-54
2022/11/18 09:26:19;;;;;;;51.13;24.55;;;1.70;99.90;;;;;;4954675;29;20034;-54
2022/11/18 09:28:46;;;;;;;46.25;24.73;;;1.60;99.90;;;;;;4953024;29;20026;-53
2022/11/18 09:31:16;;;;;;;47.58;23.33;;;1.60;99.90;;;;;;4952960;29;20031;-54
2022/11/18 09:33:42;;;;;;;46.88;24.60;;;1.70;99.90;;;;;;4951733;29;20066;-53
2022/11/18 09:36:16;;;;;;;47.80;24.83;;;1.60;99.90;;;;;;4952876;29;20079;-54
2022/11/18 09:38:42;;;;;;;45.42;23.33;;;1.60;99.90;;;;;;4953364;29;20023;-53
2022/11/18 09:41:22;;;;;;;53.45;26.63;;;1.60;99.90;;;;;;4952781;29;20027;-54
2022/11/18 09:44:06;;;;;;;57.55;26.98;;;1.60;99.90;;;;;;4954433;29;20023;-54
2022/11/18 09:46:47;;;;;;;47.30;23.83;;;1.60;99.90;;;;;;4954657;29;20123;-53
2022/11/18 09:49:25;;;;;;;47.78;24.13;;;1.60;99.90;;;;;;4954485;29;20160;-53
2022/11/18 09:51:53;;;;;;;42.20;23.83;;;1.50;99.90;;;;;;4954443;29;20050;-52
2022/11/18 09:54:22;;;;;;;50.05;26.02;;;1.50;99.90;;;;;;4954469;29;20039;-53
2022/11/18 09:56:53;;;;;;;46.97;26.00;;;1.50;99.90;;;;;;4954437;29;20050;-54
2022/11/18 09:59:22;;;;;;;46.97;26.95;;;1.50;99.90;;;;;;4954649;29;20023;-54
2022/11/18 10:01:49;;;;;;;47.75;26.38;;;1.40;99.90;;;;;;4954448;29;20202;-53
2022/11/18 10:04:18;;;;;;;48.83;25.58;;;1.50;99.90;;;;;;4954289;29;20036;-53
2022/11/18 10:06:45;;;;;;;51.42;26.63;;;1.50;99.90;;;;;;4954337;28;20514;-52
2022/11/18 10:09:17;;;;;;;52.95;27.90;;;1.60;99.90;;;;;;4973827;28;20035;-53
2022/11/18 10:12:15;;;;;;;58.75;28.20;;;1.60;99.90;;;;;;4973485;28;20031;-54
2022/11/18 10:14:41;;;;;;;56.67;28.23;;;1.60;99.90;;;;;;4903650;28;20595;-52
2022/11/18 10:17:19;;;;;;;48.08;26.27;;;1.60;99.90;;;;;;4972823;28;20025;-53
2022/11/18 10:19:50;;;;;;;;;;;1.50;99.90;;;;;;4954409;29;20471;-52
2022/11/18 10:22:45;;;;;;;46.85;25.90;;;1.40;99.90;;;;;;4954204;28;19910;-52
2022/11/18 10:25:13;;;;;;;54.53;27.98;;;1.30;99.90;;;;;;4954006;29;20034;-52
2022/11/18 10:27:44;;;;;;;55.65;26.38;;;1.40;99.90;;;;;;4953784;29;20046;-52
2022/11/18 10:30:16;;;;;;;46.13;24.08;;;1.30;99.90;;;;;;4954110;29;20024;-54
2022/11/18 10:33:18;;;;;;;48.15;24.65;;;1.30;99.90;;;;;;4953874;29;20038;-53
2022/11/18 10:35:43;;;;;;;52.33;25.13;;;1.30;99.90;;;;;;4953311;28;20106;-53
2022/11/18 10:38:12;;;;;;;50.50;26.65;;;1.30;99.90;;;;;;4936517;29;20027;-52
2022/11/18 10:40:55;;;;;;;54.70;25.17;;;1.30;99.90;;;;;;4953700;28;20116;-51
2022/11/18 10:43:48;;;;;;;54.38;27.33;;;1.20;99.90;;;;;;4953598;29;20673;-51
2022/11/18 10:46:28;;;;;;;50.20;27.23;;;1.20;99.90;;;;;;4953998;29;20126;-52
2022/11/18 10:49:13;;;;;;;59.28;28.63;;;1.10;99.90;;;;;;4953682;29;20095;-52
2022/11/18 10:51:40;;;;;;;52.75;27.38;;;1.20;99.90;;;;;;4953445;29;20038;-53
2022/11/18 10:54:14;;;;;;;57.92;28.90;;;1.10;99.90;;;;;;4953179;29;20039;-52
2022/11/18 10:57:01;;;;;;;60.20;29.17;;;1.20;99.90;;;;;;4953139;29;20047;-53
2022/11/18 10:59:40;;;;;;;57.33;29.90;;;1.10;99.90;;;;;;4953301;29;20102;-53
2022/11/18 11:02:32;;;;;;;51.53;29.42;;;1.20;99.90;;;;;;4953235;29;20031;-52
2022/11/18 11:05:11;;;;;;;55.03;28.23;;;1.20;99.90;;;;;;4953110;29;20027;-52
2022/11/18 11:07:37;;;;;;;50.85;26.48;;;1.10;99.90;;;;;;4961130;28;20503;-52
2022/11/18 11:10:12;;;;;;;62.38;30.00;;;1.10;99.90;;;;;;4971060;28;20041;-53
2022/11/18 11:12:47;;;;;;;59.47;29.08;;;1.00;99.90;;;;;;4972329;28;20042;-54
2022/11/18 11:15:24;;;;;;;57.70;29.40;;;1.00;99.90;;;;;;4972421;28;20101;-52
2022/11/18 11:20:44;;;;;;;56.45;27.80;;;0.90;99.90;;;;;;4972520;28;20065;-53
2022/11/18 11:23:14;;;;;;;56.08;28.83;;;0.90;99.90;;;;;;4971916;28;20062;-53
2022/11/18 11:25:55;;;;;;;56.97;29.75;;;0.90;99.90;;;;;;4972122;28;20031;-52
2022/11/18 11:28:40;;;;;;;56.00;27.48;;;0.90;99.90;;;;;;4972190;28;20051;-53
2022/11/18 11:31:10;;;;;;;51.17;27.23;;;0.80;99.90;;;;;;4971803;28;20382;-54
2022/11/18 11:33:43;;;;;;;60.45;30.15;;;0.80;99.90;;;;;;4971404;28;20356;-53
2022/11/18 11:36:23;;;;;;;57.47;29.33;;;0.90;99.90;;;;;;4971597;28;20058;-54
2022/11/18 11:39:26;;;;;;;60.72;28.65;;;0.80;99.90;;;;;;4971892;28;20026;-54
2022/11/18 11:41:52;;;;;;;54.30;28.70;;;0.80;99.90;;;;;;4970505;28;20050;-55
2022/11/18 11:44:59;;;;;;;46.00;25.45;;;0.70;99.90;;;;;;4971574;28;20414;-53
2022/11/18 11:48:07;;;;;;;55.72;28.35;;;0.70;99.90;;;;;;4911640;29;20084;-52
2022/11/18 11:51:14;;;;;;;58.58;27.33;;;0.70;99.90;;;;;;4971566;28;20022;-53
2022/11/18 11:54:04;;;;;;;54.45;27.20;;;0.70;99.90;;;;;;4942350;28;20439;-52
2022/11/18 11:56:48;;;;;;;55.63;25.95;;;0.70;99.90;;;;;;4971474;28;20038;-53
2022/11/18 11:59:22;;;;;;;54.53;26.25;;;0.60;99.90;;;;;;4971615;28;20034;-53
2022/11/18 12:01:48;;;;;;;48.53;25.08;;;0.70;99.90;;;;;;4971167;28;20046;-51
2022/11/18 12:04:22;;;;;;;53.63;27.42;;;0.60;99.90;;;;;;4970694;28;20097;-52
2022/11/18 12:06:52;;;;;;;47.67;25.30;;;0.60;99.90;;;;;;4970649;28;20115;-53
2022/11/18 12:09:26;;;;;;;50.65;25.42;;;0.60;99.90;;;;;;4953059;28;20030;-52
2022/11/18 12:11:54;;;;;;;52.80;26.75;;;0.70;99.90;;;;;;4971417;28;20107;-54
2022/11/18 12:14:52;;;;;;;51.10;26.05;;;0.70;99.90;;;;;;4970281;28;20023;-53
2022/11/18 12:17:36;;;;;;;52.97;25.25;;;0.50;99.90;;;;;;4971705;28;20027;-53
2022/11/18 12:20:33;;;;;;;55.70;26.52;;;0.50;99.90;;;;;;4975119;28;20110;-53
2022/11/18 12:23:12;;;;;;;56.65;28.77;;;0.50;99.90;;;;;;4990341;28;20109;-54
2022/11/18 12:25:47;;;;;;;57.90;27.60;;;0.60;99.90;;;;;;4989453;28;20026;-52
2022/11/18 12:28:27;;;;;;;53.88;27.40;;;0.60;99.90;;;;;;4990892;28;20062;-58
2022/11/18 12:31:18;;;;;;;54.85;27.15;;;0.70;99.90;;;;;;4989405;28;20514;-66
2022/11/18 12:34:25;;;;;;;56.50;27.48;;;0.80;99.90;;;;;;4990855;28;20035;-66
2022/11/18 12:36:55;;;;;;;60.33;26.95;;;0.60;99.90;;;;;;4929930;29;20499;-62
2022/11/18 12:39:23;;;;;;;53.55;25.15;;;0.70;99.90;;;;;;4981803;28;20053;-58
2022/11/18 12:44:50;;;;;;;50.58;25.45;;;0.60;99.90;;;;;;4992285;28;20037;-63
2022/11/18 12:47:39;;;;;;;49.63;24.77;;;0.50;99.90;;;;;;4994460;28;20026;-66
2022/11/18 12:50:09;;;;;;;;;;;0.60;99.90;;;;;;4994862;28;20014;-63
2022/11/18 12:52:34;;;;;;;44.70;22.58;;;0.50;99.90;;;;;;4993262;28;19905;-62
2022/11/18 12:55:12;;;;;;;44.30;24.48;;;0.40;99.90;;;;;;4994330;28;20030;-66
2022/11/18 12:57:40;;;;;;;45.80;24.33;;;0.50;99.90;;;;;;4976646;28;20066;-62
2022/11/18 13:00:53;;;;;;;46.00;24.75;;;0.40;99.90;;;;;;4994385;28;20055;-65
2022/11/18 13:03:24;;;;;;;50.78;25.33;;;0.50;99.90;;;;;;4941670;29;20065;-59
2022/11/18 13:05:59;;;;;;;48.45;26.40;;;0.50;99.90;;;;;;4962568;28;20089;-63
2022/11/18 13:08:25;;;;;;;47.60;22.88;;;0.50;99.90;;;;;;4974635;28;20026;-61
2022/11/18 13:11:43;;;;;;;51.80;25.40;;;0.40;99.90;;;;;;4981485;28;20034;-63
2022/11/18 13:13:43;;;;;;;44.40;22.67;;;0.40;99.90;;;;;;4993515;28;20031;-58
2022/11/18 13:19:06;;;;;;;45.75;22.73;;;0.30;99.90;;;;;;4972292;28;20534;-65
2022/11/18 13:24:19;;;;;;;44.55;22.10;;;0.10;99.90;;;;;;4974338;28;20740;-63